sensor_id;sensor_type;location;lat;lon;timestamp;temperature;humidity
490;DHT22;231;48.120;11.576;2023-07-02T03:38:27;16.00;99.90
490;DHT22;231;48.120;11.576;2023-07-02T03:41:14;15.70;99.90
490;DHT22;231;48.120;11.576;2023-07-02T03:43:43;15.40;99.90
490;DHT22;231;48.120;11.576;2023-07-02T03:46:10;15.20;99.90
490;DHT22;231;48.120;11.576;2023-07-02T03:48:37;15.20;99.90
490;DHT22;231;48.120;11.576;2023-07-02T03:51:04;15.10;99.90
490;DHT22;231;48.120;11.576;2023-07-02T03:53:33;15.00;99.90
490;DHT22;231;48.120;11.576;2023-07-02T03:56:00;15.00;99.90
490;DHT22;231;48.120;11.576;2023-07-02T03:58:27;14.90;99.90
490;DHT22;231;48.120;11.576;2023-07-02T04:00:53;14.90;99.90
490;DHT22;231;48.120;11.576;2023-07-02T04:03:20;14.90;99.90
490;DHT22;231;48.120;11.576;2023-07-02T04:05:47;14.80;99.90
490;DHT22;231;48.120;11.576;2023-07-02T04:08:15;14.80;99.90
490;DHT22;231;48.120;11.576;2023-07-02T04:10:43;14.80;99.90
490;DHT22;231;48.120;11.576;2023-07-02T04:13:10;14.80;99.90
490;DHT22;231;48.120;11.576;2023-07-02T04:15:37;14.80;99.90
490;DHT22;231;48.120;11.576;2023-07-02T04:18:04;14.80;99.90
490;DHT22;231;48.120;11.576;2023-07-02T04:20:31;14.80;99.90
490;DHT22;231;48.120;11.576;2023-07-02T04:22:57;14.70;99.90
490;DHT22;231;48.120;11.576;2023-07-02T04:25:25;14.80;99.90
490;DHT22;231;48.120;11.576;2023-07-02T04:27:53;14.80;99.90
490;DHT22;231;48.120;11.576;2023-07-02T04:30:22;14.80;99.90
490;DHT22;231;48.120;11.576;2023-07-02T04:32:49;14.70;99.90
490;DHT22;231;48.120;11.576;2023-07-02T04:35:16;14.80;99.90
490;DHT22;231;48.120;11.576;2023-07-02T04:37:43;14.80;99.90
490;DHT22;231;48.120;11.576;2023-07-02T04:40:10;14.70;99.90
490;DHT22;231;48.120;11.576;2023-07-02T04:42:37;14.70;99.90
490;DHT22;231;48.120;11.576;2023-07-02T04:45:07;14.80;99.90
490;DHT22;231;48.120;11.576;2023-07-02T04:47:35;14.80;99.90
490;DHT22;231;48.120;11.576;2023-07-02T04:50:02;14.80;99.90
490;DHT22;231;48.120;11.576;2023-07-02T04:52:29;14.80;99.90
490;DHT22;231;48.120;11.576;2023-07-02T04:54:56;14.70;99.90
490;DHT22;231;48.120;11.576;2023-07-02T04:57:23;14.80;99.90
490;DHT22;231;48.120;11.576;2023-07-02T04:59:50;14.70;99.90
490;DHT22;231;48.120;11.576;2023-07-02T05:02:19;14.70;99.90
490;DHT22;231;48.120;11.576;2023-07-02T05:04:50;14.80;99.90
490;DHT22;231;48.120;11.576;2023-07-02T05:07:17;14.80;99.90
490;DHT22;231;48.120;11.576;2023-07-02T05:09:45;14.80;99.90
490;DHT22;231;48.120;11.576;2023-07-02T05:12:14;14.80;99.90
490;DHT22;231;48.120;11.576;2023-07-02T05:14:45;14.80;99.90
490;DHT22;231;48.120;11.576;2023-07-02T05:17:12;14.90;99.90
490;DHT22;231;48.120;11.576;2023-07-02T05:19:41;14.90;99.90
490;DHT22;231;48.120;11.576;2023-07-02T05:22:11;14.90;99.90
490;DHT22;231;48.120;11.576;2023-07-02T05:24:39;14.90;99.90
490;DHT22;231;48.120;11.576;2023-07-02T05:27:06;15.00;99.90
490;DHT22;231;48.120;11.576;2023-07-02T05:29:35;15.10;99.90
490;DHT22;231;48.120;11.576;2023-07-02T05:32:02;15.20;99.90
490;DHT22;231;48.120;11.576;2023-07-02T05:34:29;15.30;99.90
490;DHT22;231;48.120;11.576;2023-07-02T05:36:57;15.40;99.90
490;DHT22;231;48.120;11.576;2023-07-02T05:39:24;15.50;99.90
490;DHT22;231;48.120;11.576;2023-07-02T05:41:51;15.60;99.90
490;DHT22;231;48.120;11.576;2023-07-02T05:44:18;15.70;99.90
490;DHT22;231;48.120;11.576;2023-07-02T05:46:47;15.90;99.90
490;DHT22;231;48.120;11.576;2023-07-02T05:49:17;15.90;99.90
490;DHT22;231;48.120;11.576;2023-07-02T05:51:44;15.90;99.90
490;DHT22;231;48.120;11.576;2023-07-02T05:54:30;15.90;99.90
490;DHT22;231;48.120;11.576;2023-07-02T05:57:38;16.00;99.90
490;DHT22;231;48.120;11.576;2023-07-02T06:07:05;16.10;99.90
490;DHT22;231;48.120;11.576;2023-07-02T06:36:52;15.90;99.90
490;DHT22;231;48.120;11.576;2023-07-02T06:39:19;15.90;99.90
490;DHT22;231;48.120;11.576;2023-07-02T06:41:46;15.90;99.90
490;DHT22;231;48.120;11.576;2023-07-02T06:44:13;15.90;99.90
490;DHT22;231;48.120;11.576;2023-07-02T06:46:40;15.90;99.90
490;DHT22;231;48.120;11.576;2023-07-02T06:49:07;15.90;99.90
490;DHT22;231;48.120;11.576;2023-07-02T06:51:35;16.00;99.90
490;DHT22;231;48.120;11.576;2023-07-02T06:54:04;16.00;99.90
490;DHT22;231;48.120;11.576;2023-07-02T06:56:31;16.10;99.90
490;DHT22;231;48.120;11.576;2023-07-02T06:59:00;16.10;99.90
490;DHT22;231;48.120;11.576;2023-07-02T07:01:28;16.20;99.90
490;DHT22;231;48.120;11.576;2023-07-02T07:03:58;16.40;99.90
490;DHT22;231;48.120;11.576;2023-07-02T07:06:26;16.40;99.90
490;DHT22;231;48.120;11.576;2023-07-02T07:08:53;16.40;99.90
490;DHT22;231;48.120;11.576;2023-07-02T07:13:09;16.40;99.90
490;DHT22;231;48.120;11.576;2023-07-02T07:15:28;16.30;99.90
490;DHT22;231;48.120;11.576;2023-07-02T07:21:27;16.20;99.90
490;DHT22;231;48.120;11.576;2023-07-02T07:24:41;16.20;99.90
490;DHT22;231;48.120;11.576;2023-07-02T07:27:48;16.20;99.90
490;DHT22;231;48.120;11.576;2023-07-02T07:30:32;16.10;99.90
490;DHT22;231;48.120;11.576;2023-07-02T07:33:01;16.00;99.90
490;DHT22;231;48.120;11.576;2023-07-02T07:35:28;15.90;99.90
490;DHT22;231;48.120;11.576;2023-07-02T07:37:56;15.90;99.90
490;DHT22;231;48.120;11.576;2023-07-02T07:40:24;15.90;99.90
490;DHT22;231;48.120;11.576;2023-07-02T07:42:54;16.00;99.90
490;DHT22;231;48.120;11.576;2023-07-02T07:45:22;16.10;99.90
490;DHT22;231;48.120;11.576;2023-07-02T07:47:52;16.20;99.90
490;DHT22;231;48.120;11.576;2023-07-02T07:50:30;16.30;99.90
490;DHT22;231;48.120;11.576;2023-07-02T07:52:58;16.30;99.90
490;DHT22;231;48.120;11.576;2023-07-02T07:55:31;16.50;99.90
490;DHT22;231;48.120;11.576;2023-07-02T07:58:30;16.60;99.90
490;DHT22;231;48.120;11.576;2023-07-02T08:01:17;16.60;99.90
490;DHT22;231;48.120;11.576;2023-07-02T08:03:51;16.70;99.90
490;DHT22;231;48.120;11.576;2023-07-02T08:06:37;16.90;99.90
490;DHT22;231;48.120;11.576;2023-07-02T08:09:08;17.00;99.90
490;DHT22;231;48.120;11.576;2023-07-02T08:11:37;17.20;99.90
490;DHT22;231;48.120;11.576;2023-07-02T08:14:06;17.60;99.90
490;DHT22;231;48.120;11.576;2023-07-02T08:16:33;18.20;99.90
490;DHT22;231;48.120;11.576;2023-07-02T08:19:00;18.90;99.90
490;DHT22;231;48.120;11.576;2023-07-02T08:21:34;19.40;99.90
490;DHT22;231;48.120;11.576;2023-07-02T08:24:02;19.60;99.90
490;DHT22;231;48.120;11.576;2023-07-02T08:26:29;19.80;99.90
490;DHT22;231;48.120;11.576;2023-07-02T08:28:56;19.90;99.90
490;DHT22;231;48.120;11.576;2023-07-02T08:31:38;19.90;99.90
490;DHT22;231;48.120;11.576;2023-07-02T08:34:05;19.60;99.90
490;DHT22;231;48.120;11.576;2023-07-02T08:36:33;19.30;99.90
490;DHT22;231;48.120;11.576;2023-07-02T08:42:13;19.10;99.90
490;DHT22;231;48.120;11.576;2023-07-02T08:44:53;19.10;99.90
490;DHT22;231;48.120;11.576;2023-07-02T08:47:27;18.90;99.90
490;DHT22;231;48.120;11.576;2023-07-02T08:49:54;18.80;99.90
490;DHT22;231;48.120;11.576;2023-07-02T08:52:21;18.50;99.90
490;DHT22;231;48.120;11.576;2023-07-02T08:54:48;18.40;99.90
490;DHT22;231;48.120;11.576;2023-07-02T08:57:17;18.10;99.90
490;DHT22;231;48.120;11.576;2023-07-02T08:59:44;18.00;99.90
490;DHT22;231;48.120;11.576;2023-07-02T09:02:12;17.80;99.90
490;DHT22;231;48.120;11.576;2023-07-02T09:04:40;17.70;99.90
490;DHT22;231;48.120;11.576;2023-07-02T09:07:13;17.60;99.90
490;DHT22;231;48.120;11.576;2023-07-02T09:09:48;17.50;99.90
490;DHT22;231;48.120;11.576;2023-07-02T09:12:23;17.50;99.90
490;DHT22;231;48.120;11.576;2023-07-02T09:14:55;17.50;99.90
490;DHT22;231;48.120;11.576;2023-07-02T09:17:27;17.50;99.90
490;DHT22;231;48.120;11.576;2023-07-02T09:19:57;17.50;99.90
490;DHT22;231;48.120;11.576;2023-07-02T09:22:26;17.50;99.90
490;DHT22;231;48.120;11.576;2023-07-02T09:24:56;17.50;99.90
490;DHT22;231;48.120;11.576;2023-07-02T09:27:37;17.50;99.90
490;DHT22;231;48.120;11.576;2023-07-02T09:30:09;17.50;99.90
490;DHT22;231;48.120;11.576;2023-07-02T09:32:38;17.50;99.90
490;DHT22;231;48.120;11.576;2023-07-02T09:35:06;17.60;99.90
490;DHT22;231;48.120;11.576;2023-07-02T09:37:34;17.70;99.90
490;DHT22;231;48.120;11.576;2023-07-02T09:40:01;17.90;99.90
490;DHT22;231;48.120;11.576;2023-07-02T09:42:31;17.90;99.90
490;DHT22;231;48.120;11.576;2023-07-02T09:44:59;18.00;99.90
490;DHT22;231;48.120;11.576;2023-07-02T09:47:27;18.00;99.90
490;DHT22;231;48.120;11.576;2023-07-02T09:50:04;18.20;99.90
490;DHT22;231;48.120;11.576;2023-07-02T09:52:33;18.50;99.90
490;DHT22;231;48.120;11.576;2023-07-02T09:55:01;18.60;99.90
490;DHT22;231;48.120;11.576;2023-07-02T09:57:29;18.60;99.90
490;DHT22;231;48.120;11.576;2023-07-02T09:59:58;18.50;99.90
490;DHT22;231;48.120;11.576;2023-07-02T10:02:25;18.30;99.90
490;DHT22;231;48.120;11.576;2023-07-02T10:04:51;18.20;99.90
490;DHT22;231;48.120;11.576;2023-07-02T10:07:27;18.20;99.90
490;DHT22;231;48.120;11.576;2023-07-02T10:09:55;18.40;99.90
490;DHT22;231;48.120;11.576;2023-07-02T10:12:23;18.70;99.90
490;DHT22;231;48.120;11.576;2023-07-02T10:14:51;19.30;99.90
490;DHT22;231;48.120;11.576;2023-07-02T10:17:26;19.70;99.90
490;DHT22;231;48.120;11.576;2023-07-02T10:19:57;20.20;99.90
490;DHT22;231;48.120;11.576;2023-07-02T10:22:25;21.80;99.90
490;DHT22;231;48.120;11.576;2023-07-02T10:31:48;24.70;99.90
490;DHT22;231;48.120;11.576;2023-07-02T10:34:30;24.80;99.90
490;DHT22;231;48.120;11.576;2023-07-02T10:37:00;24.80;99.90
490;DHT22;231;48.120;11.576;2023-07-02T10:39:29;25.20;99.90
490;DHT22;231;48.120;11.576;2023-07-02T10:42:07;25.70;99.90
490;DHT22;231;48.120;11.576;2023-07-02T10:44:50;26.30;99.90
490;DHT22;231;48.120;11.576;2023-07-02T10:47:20;26.70;99.90
490;DHT22;231;48.120;11.576;2023-07-02T10:49:50;27.30;99.90
490;DHT22;231;48.120;11.576;2023-07-02T10:52:39;27.60;99.90
490;DHT22;231;48.120;11.576;2023-07-02T10:58:42;28.30;99.90
490;DHT22;231;48.120;11.576;2023-07-02T11:01:23;28.90;78.20
490;DHT22;231;48.120;11.576;2023-07-02T11:04:02;29.20;93.10
490;DHT22;231;48.120;11.576;2023-07-02T11:16:54;33.40;92.10
490;DHT22;231;48.120;11.576;2023-07-02T11:19:23;34.60;92.70
490;DHT22;231;48.120;11.576;2023-07-02T12:11:10;41.00;1.00
490;DHT22;231;48.120;11.576;2023-07-02T12:14:52;41.20;1.00
490;DHT22;231;48.120;11.576;2023-07-02T13:35:05;29.40;1.00
490;DHT22;231;48.120;11.576;2023-07-02T13:44:59;28.50;1.00
490;DHT22;231;48.120;11.576;2023-07-02T13:47:44;28.60;1.00
490;DHT22;231;48.120;11.576;2023-07-02T13:50:13;28.70;1.00
490;DHT22;231;48.120;11.576;2023-07-02T13:52:40;28.60;1.00
490;DHT22;231;48.120;11.576;2023-07-02T13:55:10;28.50;1.00
490;DHT22;231;48.120;11.576;2023-07-02T13:57:36;28.40;1.00
490;DHT22;231;48.120;11.576;2023-07-02T14:00:13;28.40;1.00
490;DHT22;231;48.120;11.576;2023-07-02T14:02:40;28.50;1.00
490;DHT22;231;48.120;11.576;2023-07-02T14:05:07;28.50;1.00
490;DHT22;231;48.120;11.576;2023-07-02T14:07:35;28.40;1.00
490;DHT22;231;48.120;11.576;2023-07-02T14:10:02;28.20;1.00
490;DHT22;231;48.120;11.576;2023-07-02T14:12:30;28.00;1.00
490;DHT22;231;48.120;11.576;2023-07-02T14:14:57;27.80;1.00
490;DHT22;231;48.120;11.576;2023-07-02T14:17:26;27.60;1.00
490;DHT22;231;48.120;11.576;2023-07-02T14:19:53;27.40;1.00
490;DHT22;231;48.120;11.576;2023-07-02T14:22:20;27.30;1.00
490;DHT22;231;48.120;11.576;2023-07-02T14:24:49;27.10;1.00
490;DHT22;231;48.120;11.576;2023-07-02T14:27:16;26.90;1.00
490;DHT22;231;48.120;11.576;2023-07-02T14:29:43;26.90;1.00
490;DHT22;231;48.120;11.576;2023-07-02T14:32:13;27.00;1.00
490;DHT22;231;48.120;11.576;2023-07-02T14:34:42;27.00;1.00
490;DHT22;231;48.120;11.576;2023-07-02T14:37:09;27.10;1.00
490;DHT22;231;48.120;11.576;2023-07-02T14:39:36;27.10;1.00
490;DHT22;231;48.120;11.576;2023-07-02T14:42:04;27.20;1.00
490;DHT22;231;48.120;11.576;2023-07-02T14:44:33;27.20;1.00
490;DHT22;231;48.120;11.576;2023-07-02T14:47:00;27.20;1.00
490;DHT22;231;48.120;11.576;2023-07-02T14:49:31;27.20;1.00
490;DHT22;231;48.120;11.576;2023-07-02T14:51:59;27.10;1.00
490;DHT22;231;48.120;11.576;2023-07-02T14:54:26;27.10;1.00
490;DHT22;231;48.120;11.576;2023-07-02T14:56:55;27.10;1.00
490;DHT22;231;48.120;11.576;2023-07-02T14:59:22;27.20;1.00
490;DHT22;231;48.120;11.576;2023-07-02T15:01:52;27.20;1.00
490;DHT22;231;48.120;11.576;2023-07-02T15:04:19;27.20;1.00
490;DHT22;231;48.120;11.576;2023-07-02T15:06:46;27.20;1.00
490;DHT22;231;48.120;11.576;2023-07-02T15:09:18;27.30;1.00
490;DHT22;231;48.120;11.576;2023-07-02T15:11:46;27.60;1.00
490;DHT22;231;48.120;11.576;2023-07-02T15:14:13;27.90;1.00
490;DHT22;231;48.120;11.576;2023-07-02T15:16:40;28.10;1.00
490;DHT22;231;48.120;11.576;2023-07-02T15:19:08;28.40;1.00
490;DHT22;231;48.120;11.576;2023-07-02T15:21:35;28.50;1.00
490;DHT22;231;48.120;11.576;2023-07-02T15:24:03;28.60;1.00
490;DHT22;231;48.120;11.576;2023-07-02T15:26:31;28.70;1.00
490;DHT22;231;48.120;11.576;2023-07-02T15:29:00;28.90;1.00
490;DHT22;231;48.120;11.576;2023-07-02T15:31:28;29.00;1.00
490;DHT22;231;48.120;11.576;2023-07-02T15:33:55;28.80;1.00
490;DHT22;231;48.120;11.576;2023-07-02T15:36:22;28.30;1.00
490;DHT22;231;48.120;11.576;2023-07-02T15:38:49;28.10;1.00
490;DHT22;231;48.120;11.576;2023-07-02T15:41:19;28.10;1.00
490;DHT22;231;48.120;11.576;2023-07-02T15:43:49;28.10;1.00
490;DHT22;231;48.120;11.576;2023-07-02T15:46:18;27.90;1.00
490;DHT22;231;48.120;11.576;2023-07-02T15:48:44;27.60;1.00
490;DHT22;231;48.120;11.576;2023-07-02T15:51:12;27.40;1.00
490;DHT22;231;48.120;11.576;2023-07-02T15:53:40;27.40;1.00
490;DHT22;231;48.120;11.576;2023-07-02T15:56:07;27.30;1.00
490;DHT22;231;48.120;11.576;2023-07-02T15:58:34;27.20;1.00
490;DHT22;231;48.120;11.576;2023-07-02T16:01:14;27.10;1.00
490;DHT22;231;48.120;11.576;2023-07-02T16:03:41;27.00;1.00
490;DHT22;231;48.120;11.576;2023-07-02T16:06:11;26.70;1.00
490;DHT22;231;48.120;11.576;2023-07-02T16:08:38;26.70;1.00
490;DHT22;231;48.120;11.576;2023-07-02T16:11:06;26.60;1.00
490;DHT22;231;48.120;11.576;2023-07-02T16:13:34;26.60;1.00
490;DHT22;231;48.120;11.576;2023-07-02T16:16:01;26.50;1.00
490;DHT22;231;48.120;11.576;2023-07-02T16:18:30;26.60;1.00
490;DHT22;231;48.120;11.576;2023-07-02T16:20:58;26.70;1.00
490;DHT22;231;48.120;11.576;2023-07-02T16:23:25;26.70;1.00
490;DHT22;231;48.120;11.576;2023-07-02T16:25:53;26.80;1.00
490;DHT22;231;48.120;11.576;2023-07-02T16:28:20;26.90;1.00
490;DHT22;231;48.120;11.576;2023-07-02T16:30:48;26.90;1.00
490;DHT22;231;48.120;11.576;2023-07-02T16:33:16;27.00;1.00
490;DHT22;231;48.120;11.576;2023-07-02T16:35:45;27.10;1.00
490;DHT22;231;48.120;11.576;2023-07-02T16:38:12;27.20;1.00
490;DHT22;231;48.120;11.576;2023-07-02T16:40:39;27.10;1.00
490;DHT22;231;48.120;11.576;2023-07-02T16:43:07;27.00;1.00
490;DHT22;231;48.120;11.576;2023-07-02T16:45:36;26.90;1.00
490;DHT22;231;48.120;11.576;2023-07-02T16:48:04;26.90;1.00
490;DHT22;231;48.120;11.576;2023-07-02T16:50:30;26.90;1.00
490;DHT22;231;48.120;11.576;2023-07-02T16:52:59;26.80;1.00
490;DHT22;231;48.120;11.576;2023-07-02T16:55:26;26.60;1.00
490;DHT22;231;48.120;11.576;2023-07-02T16:57:55;26.30;1.00
490;DHT22;231;48.120;11.576;2023-07-02T17:00:22;26.00;1.00
490;DHT22;231;48.120;11.576;2023-07-02T17:02:48;25.60;1.00
490;DHT22;231;48.120;11.576;2023-07-02T17:05:16;25.30;1.00
490;DHT22;231;48.120;11.576;2023-07-02T17:07:42;25.10;1.00
490;DHT22;231;48.120;11.576;2023-07-02T17:10:11;25.10;1.00
490;DHT22;231;48.120;11.576;2023-07-02T17:12:38;25.10;1.00
490;DHT22;231;48.120;11.576;2023-07-02T17:15:06;25.30;1.00
490;DHT22;231;48.120;11.576;2023-07-02T17:17:33;25.30;1.00
490;DHT22;231;48.120;11.576;2023-07-02T17:20:00;25.40;1.00
490;DHT22;231;48.120;11.576;2023-07-02T17:22:28;25.30;1.00
490;DHT22;231;48.120;11.576;2023-07-02T17:24:57;25.30;1.00
490;DHT22;231;48.120;11.576;2023-07-02T17:27:29;25.10;1.00
490;DHT22;231;48.120;11.576;2023-07-02T17:29:59;24.80;1.00
490;DHT22;231;48.120;11.576;2023-07-02T17:32:27;24.50;1.00
490;DHT22;231;48.120;11.576;2023-07-02T17:34:55;24.30;1.00
490;DHT22;231;48.120;11.576;2023-07-02T17:37:22;24.00;1.00
490;DHT22;231;48.120;11.576;2023-07-02T17:39:50;23.80;1.00
490;DHT22;231;48.120;11.576;2023-07-02T17:42:18;23.80;1.00
490;DHT22;231;48.120;11.576;2023-07-02T17:44:47;23.80;1.00
490;DHT22;231;48.120;11.576;2023-07-02T17:47:16;23.80;1.00
490;DHT22;231;48.120;11.576;2023-07-02T17:49:44;23.80;1.00
490;DHT22;231;48.120;11.576;2023-07-02T17:52:13;23.70;1.00
490;DHT22;231;48.120;11.576;2023-07-02T17:54:42;23.70;1.00
490;DHT22;231;48.120;11.576;2023-07-02T17:57:10;23.50;1.00
490;DHT22;231;48.120;11.576;2023-07-02T17:59:38;23.50;1.50
490;DHT22;231;48.120;11.576;2023-07-02T18:02:09;23.40;1.60
490;DHT22;231;48.120;11.576;2023-07-02T18:04:37;23.30;2.00
490;DHT22;231;48.120;11.576;2023-07-02T18:07:07;23.20;2.40
490;DHT22;231;48.120;11.576;2023-07-02T18:09:37;23.10;2.60
490;DHT22;231;48.120;11.576;2023-07-02T18:12:06;23.00;3.00
490;DHT22;231;48.120;11.576;2023-07-02T18:14:33;22.90;3.20
490;DHT22;231;48.120;11.576;2023-07-02T18:17:00;22.80;3.70
490;DHT22;231;48.120;11.576;2023-07-02T18:19:29;22.70;3.70
490;DHT22;231;48.120;11.576;2023-07-02T18:21:57;22.60;4.00
490;DHT22;231;48.120;11.576;2023-07-02T18:24:28;22.50;4.50
490;DHT22;231;48.120;11.576;2023-07-02T18:26:55;22.40;4.80
490;DHT22;231;48.120;11.576;2023-07-02T18:29:22;22.30;5.10
490;DHT22;231;48.120;11.576;2023-07-02T18:31:49;22.20;5.20
490;DHT22;231;48.120;11.576;2023-07-02T18:34:16;22.10;5.50
490;DHT22;231;48.120;11.576;2023-07-02T18:36:45;21.90;5.80
490;DHT22;231;48.120;11.576;2023-07-02T18:39:17;21.90;6.20
490;DHT22;231;48.120;11.576;2023-07-02T21:18:19;20.30;16.10
490;DHT22;231;48.120;11.576;2023-07-02T21:20:47;20.30;16.10
490;DHT22;231;48.120;11.576;2023-07-02T21:23:14;20.30;16.20
490;DHT22;231;48.120;11.576;2023-07-02T21:25:41;20.30;16.20
490;DHT22;231;48.120;11.576;2023-07-02T21:28:08;20.30;16.10
490;DHT22;231;48.120;11.576;2023-07-02T21:30:35;20.30;16.00
490;DHT22;231;48.120;11.576;2023-07-02T21:33:02;20.40;15.90
490;DHT22;231;48.120;11.576;2023-07-02T21:35:31;20.40;16.40
490;DHT22;231;48.120;11.576;2023-07-02T21:37:58;20.40;15.80
490;DHT22;231;48.120;11.576;2023-07-02T21:40:25;20.40;15.90
490;DHT22;231;48.120;11.576;2023-07-02T21:42:52;20.40;16.00
490;DHT22;231;48.120;11.576;2023-07-02T21:45:20;20.40;15.80
490;DHT22;231;48.120;11.576;2023-07-02T21:47:49;20.40;15.70
490;DHT22;231;48.120;11.576;2023-07-02T21:50:17;20.50;15.80
490;DHT22;231;48.120;11.576;2023-07-02T21:52:47;20.50;15.70
490;DHT22;231;48.120;11.576;2023-07-02T21:55:14;20.40;15.80
490;DHT22;231;48.120;11.576;2023-07-02T21:57:41;20.40;15.80
490;DHT22;231;48.120;11.576;2023-07-02T22:00:21;20.40;15.80
490;DHT22;231;48.120;11.576;2023-07-02T22:02:49;20.40;15.80
490;DHT22;231;48.120;11.576;2023-07-02T22:05:17;20.40;16.00
490;DHT22;231;48.120;11.576;2023-07-02T22:07:46;20.50;16.00
490;DHT22;231;48.120;11.576;2023-07-02T22:10:13;20.50;15.90
490;DHT22;231;48.120;11.576;2023-07-02T22:12:40;20.50;16.10
490;DHT22;231;48.120;11.576;2023-07-02T22:15:08;20.50;15.90
490;DHT22;231;48.120;11.576;2023-07-02T22:17:35;20.50;16.10
490;DHT22;231;48.120;11.576;2023-07-02T22:20:04;20.50;15.90
490;DHT22;231;48.120;11.576;2023-07-02T22:22:37;20.50;16.00
490;DHT22;231;48.120;11.576;2023-07-02T22:25:09;20.50;15.80
490;DHT22;231;48.120;11.576;2023-07-02T22:27:38;20.50;15.90
490;DHT22;231;48.120;11.576;2023-07-02T22:30:07;20.50;16.10
490;DHT22;231;48.120;11.576;2023-07-02T22:32:37;20.50;16.00
490;DHT22;231;48.120;11.576;2023-07-02T22:35:13;20.50;16.10
490;DHT22;231;48.120;11.576;2023-07-02T22:37:41;20.50;16.20
490;DHT22;231;48.120;11.576;2023-07-02T22:40:12;20.50;16.30
490;DHT22;231;48.120;11.576;2023-07-02T22:42:41;20.40;16.50
490;DHT22;231;48.120;11.576;2023-07-02T22:45:10;20.40;16.60
490;DHT22;231;48.120;11.576;2023-07-02T22:47:38;20.40;16.60
490;DHT22;231;48.120;11.576;2023-07-02T22:50:06;20.30;16.30
490;DHT22;231;48.120;11.576;2023-07-02T22:52:33;20.30;16.60
490;DHT22;231;48.120;11.576;2023-07-02T22:55:03;20.30;16.50
490;DHT22;231;48.120;11.576;2023-07-02T22:57:34;20.30;16.60
490;DHT22;231;48.120;11.576;2023-07-02T23:00:02;20.30;16.90
490;DHT22;231;48.120;11.576;2023-07-02T23:02:36;20.10;17.10
490;DHT22;231;48.120;11.576;2023-07-02T23:05:05;20.00;17.80
490;DHT22;231;48.120;11.576;2023-07-02T23:07:32;19.90;18.10
490;DHT22;231;48.120;11.576;2023-07-02T23:09:59;19.90;18.70
490;DHT22;231;48.120;11.576;2023-07-02T23:12:26;19.80;18.90
490;DHT22;231;48.120;11.576;2023-07-02T23:14:54;19.80;19.10
490;DHT22;231;48.120;11.576;2023-07-02T23:17:24;19.80;19.10
490;DHT22;231;48.120;11.576;2023-07-02T23:19:51;19.80;19.30
490;DHT22;231;48.120;11.576;2023-07-02T23:22:18;19.80;19.50
490;DHT22;231;48.120;11.576;2023-07-02T23:24:45;19.70;19.70
490;DHT22;231;48.120;11.576;2023-07-02T23:27:12;19.70;20.10
490;DHT22;231;48.120;11.576;2023-07-02T23:29:39;19.60;20.50
490;DHT22;231;48.120;11.576;2023-07-02T23:32:08;19.60;20.70
490;DHT22;231;48.120;11.576;2023-07-02T23:34:35;19.50;20.90
490;DHT22;231;48.120;11.576;2023-07-02T23:37:05;19.40;21.50
490;DHT22;231;48.120;11.576;2023-07-02T23:39:36;19.30;21.90
490;DHT22;231;48.120;11.576;2023-07-02T23:42:04;19.30;22.10
490;DHT22;231;48.120;11.576;2023-07-02T23:44:31;19.20;22.40
490;DHT22;231;48.120;11.576;2023-07-02T23:46:58;19.20;23.20
490;DHT22;231;48.120;11.576;2023-07-02T23:49:26;19.10;22.80
490;DHT22;231;48.120;11.576;2023-07-02T23:51:54;19.00;23.30
490;DHT22;231;48.120;11.576;2023-07-02T23:54:22;19.00;23.80
490;DHT22;231;48.120;11.576;2023-07-02T23:56:48;19.00;23.90
490;DHT22;231;48.120;11.576;2023-07-02T23:59:15;19.00;23.90
